Time;durP1;ratioP1;P1;durP2;ratioP2;P2;SDS_P1;SDS_P2;PMS_P1;PMS_P2;Temp;Humidity;BMP_temperature;BMP_pressure;BME280_temperature;BME280_humidity;BME280_pressure;Samples;Min_cycle;Max_cycle;Signal;HPM_P1;HPM_P2
2021/03/04 00:01:17;;;;;;;24.63;20.17;;;6.00;99.90;;;6.93;77.93;98607.25;5196008;28;20222;-60
2021/03/04 00:03:49;;;;;;;23.40;18.73;;;6.00;99.90;;;6.96;78.24;98610.06;5194940;28;20756;-61
2021/03/04 00:06:21;;;;;;;23.60;19.37;;;5.90;99.90;;;6.96;78.21;98607.50;5205326;28;20288;-60
2021/03/04 00:08:54;;;;;;;23.93;18.97;;;5.90;99.90;;;6.87;77.61;98606.75;5205739;28;20206;-61
2021/03/04 00:11:26;;;;;;;24.93;18.17;;;5.80;99.90;;;6.86;77.71;98604.94;5185562;28;20726;-59
2021/03/04 00:13:58;;;;;;;24.07;19.20;;;5.80;99.90;;;6.81;77.84;98599.50;5185634;28;20601;-60
2021/03/04 00:16:31;;;;;;;24.10;20.07;;;5.80;99.90;;;6.88;78.17;98590.72;5201237;28;20199;-61
2021/03/04 00:19:04;;;;;;;28.10;19.67;;;5.80;99.90;;;6.85;78.57;98598.09;5193313;28;20233;-58
2021/03/04 00:21:36;;;;;;;26.67;19.87;;;5.80;99.90;;;6.83;78.31;98599.63;5205897;28;20214;-60
2021/03/04 00:24:09;;;;;;;22.67;18.17;;;5.80;99.90;;;6.83;78.12;98597.06;5204000;28;20669;-60
2021/03/04 00:26:41;;;;;;;24.03;18.70;;;5.80;99.90;;;6.79;78.03;98595.94;5200089;28;20248;-60
2021/03/04 00:29:14;;;;;;;23.57;19.23;;;5.80;99.90;;;6.83;78.67;98594.53;5199165;28;20686;-60
2021/03/04 00:31:47;;;;;;;25.63;21.23;;;5.90;99.90;;;6.85;78.94;98587.94;5199504;28;20411;-60
2021/03/04 00:34:19;;;;;;;22.27;19.37;;;5.90;99.90;;;6.91;78.77;98583.34;5191259;28;20297;-60
2021/03/04 00:36:51;;;;;;;25.17;19.27;;;6.00;99.90;;;6.94;78.55;98586.16;5205692;28;20197;-60
2021/03/04 00:39:24;;;;;;;26.27;19.37;;;5.90;99.90;;;6.95;78.51;98585.38;5187044;28;20219;-59
2021/03/04 00:41:56;;;;;;;24.23;20.20;;;5.90;99.90;;;6.92;77.93;98577.50;5201718;28;20204;-60
2021/03/04 00:44:28;;;;;;;22.23;18.03;;;5.80;99.90;;;6.87;77.71;98578.81;5203938;28;20202;-60
2021/03/04 00:47:01;;;;;;;23.47;18.50;;;5.80;99.90;;;6.85;77.95;98572.69;5200746;28;20215;-59
2021/03/04 00:49:33;;;;;;;24.83;18.97;;;5.80;99.90;;;6.85;78.23;98567.63;5200295;28;20222;-59
2021/03/04 00:52:06;;;;;;;26.20;20.17;;;5.80;99.90;;;6.81;78.65;98575.72;5185704;28;20666;-58
2021/03/04 00:54:42;;;;;;;23.93;19.93;;;5.80;99.90;;;6.89;78.41;98574.72;5193751;28;20202;-60
2021/03/04 00:57:14;;;;;;;26.33;19.77;;;5.80;99.90;;;6.85;78.47;98573.56;5205742;28;20202;-60
2021/03/04 00:59:46;;;;;;;22.97;18.70;;;5.80;99.90;;;6.81;78.72;98576.63;5199285;28;20557;-61
2021/03/04 01:02:19;;;;;;;24.27;18.97;;;5.70;99.90;;;6.74;78.46;98567.59;5198318;28;20199;-60
2021/03/04 01:04:51;;;;;;;23.80;18.27;;;5.70;99.90;;;6.72;78.58;98575.84;5192912;28;20562;-60
2021/03/04 01:07:23;;;;;;;26.27;20.63;;;5.80;99.90;;;6.70;78.99;98557.97;5199451;28;20219;-60
2021/03/04 01:09:55;;;;;;;24.10;20.57;;;5.80;99.90;;;6.65;79.20;98558.34;5185985;28;20260;-60
2021/03/04 01:12:27;;;;;;;28.27;22.37;;;5.80;99.90;;;6.82;78.74;98562.28;5204024;28;20194;-59
2021/03/04 01:14:59;;;;;;;25.63;20.73;;;5.80;99.90;;;6.82;78.59;98559.75;5205224;28;20203;-59
2021/03/04 01:17:32;;;;;;;25.17;19.53;;;5.80;99.90;;;6.71;79.04;98558.84;5204021;28;20187;-61
2021/03/04 01:20:08;;;;;;;23.03;19.83;;;5.80;99.90;;;6.71;78.84;98552.09;5188454;28;20223;-60
2021/03/04 01:22:40;;;;;;;30.07;22.93;;;5.80;99.90;;;6.62;79.24;98538.66;5184846;28;20212;-60
2021/03/04 01:25:14;;;;;;;25.13;21.33;;;5.80;99.90;;;6.70;79.25;98546.91;5192531;28;20198;-60
2021/03/04 01:27:49;;;;;;;25.57;21.33;;;5.80;99.90;;;6.85;78.80;98542.22;5200176;28;20229;-60
2021/03/04 01:30:25;;;;;;;27.60;21.27;;;5.80;99.90;;;6.76;78.92;98538.13;5191912;28;20689;-60
2021/03/04 01:32:58;;;;;;;25.83;20.27;;;5.80;99.90;;;6.88;79.08;98538.25;5207820;28;20198;-60
2021/03/04 01:35:30;;;;;;;24.10;18.97;;;5.80;99.90;;;6.91;79.11;98530.00;5195505;28;20285;-60
2021/03/04 01:38:03;;;;;;;25.97;20.57;;;5.80;99.90;;;6.91;78.73;98517.28;5198722;28;20696;-60
2021/03/04 01:40:35;;;;;;;24.77;20.00;;;5.80;99.90;;;6.91;78.02;98520.72;5208377;28;20213;-59
2021/03/04 01:43:07;;;;;;;23.10;19.57;;;5.80;99.90;;;6.74;78.74;98513.38;5208314;28;20228;-60
2021/03/04 01:45:39;;;;;;;23.50;19.73;;;5.80;99.90;;;6.72;78.49;98512.34;5208210;28;20190;-60
2021/03/04 01:48:13;;;;;;;23.57;20.20;;;5.80;99.90;;;6.73;79.21;98517.56;5199473;28;20702;-60
2021/03/04 01:50:46;;;;;;;24.07;18.90;;;5.80;99.90;;;6.80;79.12;98518.06;5189080;28;20223;-60
2021/03/04 01:53:18;;;;;;;23.13;19.73;;;5.80;99.90;;;6.84;79.17;98515.91;5198415;28;20285;-60
2021/03/04 01:55:51;;;;;;;23.43;20.50;;;5.80;99.90;;;6.86;79.38;98514.38;5208245;28;20198;-60
2021/03/04 01:58:24;;;;;;;22.30;18.80;;;5.70;99.90;;;6.83;78.91;98513.22;5207456;28;20220;-59
2021/03/04 02:04:44;;;;;;;23.47;19.03;;;5.70;99.90;;;6.76;79.19;98507.66;5201203;28;20638;-60
2021/03/04 02:07:24;;;;;;;25.20;19.47;;;5.70;99.90;;;6.72;79.59;98508.19;5189266;28;20222;-60
2021/03/04 02:10:04;;;;;;;22.23;18.70;;;5.80;99.90;;;6.64;79.38;98501.56;5208175;28;20225;-60
2021/03/04 02:12:44;;;;;;;23.43;19.73;;;5.70;99.90;;;6.66;79.42;98505.09;5205430;28;20217;-60
2021/03/04 02:15:26;;;;;;;23.17;19.00;;;5.70;99.90;;;6.66;79.76;98507.66;5191167;28;20210;-59
2021/03/04 02:18:02;;;;;;;25.97;20.67;;;5.70;99.90;;;6.65;79.33;98493.19;5189778;28;20208;-59
2021/03/04 02:20:54;;;;;;;25.90;20.30;;;5.70;99.90;;;6.67;79.65;98491.66;5201091;28;20255;-60
2021/03/04 02:23:52;;;;;;;25.00;19.77;;;5.70;99.90;;;6.63;79.88;98483.66;5204710;28;20198;-60
2021/03/04 02:26:40;;;;;;;22.50;18.77;;;5.70;99.90;;;6.60;79.29;98478.31;5187931;28;20212;-58
2021/03/04 02:29:19;;;;;;;23.03;19.20;;;5.60;99.90;;;6.65;79.64;98469.44;5196286;28;20248;-60
2021/03/04 02:31:55;;;;;;;25.73;19.47;;;5.70;99.90;;;6.62;79.30;98467.53;5207786;28;20208;-60
2021/03/04 02:34:29;;;;;;;21.00;18.07;;;5.70;99.90;;;6.59;79.91;98472.38;5199202;28;20198;-60
2021/03/04 02:37:02;;;;;;;23.77;19.13;;;5.70;99.90;;;6.67;79.14;98471.34;5208241;28;20205;-60
2021/03/04 02:39:36;;;;;;;23.80;19.10;;;5.70;99.90;;;6.64;79.76;98476.19;5190832;28;20277;-60
2021/03/04 02:42:08;;;;;;;22.43;19.07;;;5.70;99.90;;;6.62;79.86;98471.72;5205670;28;20700;-61
2021/03/04 02:44:42;;;;;;;22.57;19.83;;;5.60;99.90;;;6.61;79.30;98467.38;5207144;28;20673;-59
2021/03/04 02:47:16;;;;;;;22.33;19.60;;;5.70;99.90;;;6.61;79.62;98468.31;5206873;28;20218;-60
2021/03/04 02:49:48;;;;;;;23.47;19.83;;;5.60;99.90;;;6.62;79.30;98471.72;5204809;28;20217;-60
2021/03/04 02:52:21;;;;;;;24.20;20.47;;;5.60;99.90;;;6.57;79.74;98458.66;5207330;28;20227;-58
2021/03/04 02:54:54;;;;;;;24.67;18.97;;;5.60;99.90;;;6.60;79.71;98463.09;5205842;28;20217;-60
2021/03/04 02:57:28;;;;;;;26.43;20.70;;;5.70;99.90;;;6.63;79.88;98456.59;5207104;28;20688;-60
2021/03/04 03:00:01;;;;;;;23.23;19.77;;;5.70;99.90;;;6.64;79.55;98454.94;5199693;28;20301;-60
2021/03/04 03:02:36;;;;;;;23.13;18.70;;;5.70;99.90;;;6.69;79.96;98464.72;5207250;28;20297;-60
2021/03/04 03:05:11;;;;;;;24.73;19.93;;;5.60;99.90;;;6.65;80.01;98457.63;5194892;28;20209;-60
2021/03/04 03:07:45;;;;;;;24.73;20.57;;;5.60;99.90;;;6.67;79.91;98455.22;5200209;28;20258;-60
2021/03/04 03:10:18;;;;;;;26.67;21.57;;;5.60;99.90;;;6.62;79.78;98451.41;5206670;28;20232;-60
2021/03/04 03:12:51;;;;;;;24.93;20.93;;;5.60;99.90;;;6.62;79.47;98449.75;5206713;28;20212;-61
2021/03/04 03:15:25;;;;;;;27.97;20.60;;;5.70;99.90;;;6.61;79.76;98450.53;5189888;28;20194;-60
2021/03/04 03:17:57;;;;;;;23.60;20.17;;;5.70;99.90;;;6.65;80.32;98456.75;5205532;28;20197;-60
2021/03/04 03:20:29;;;;;;;24.17;19.60;;;5.70;99.90;;;6.69;79.34;98456.22;5204715;28;20245;-60
2021/03/04 03:23:02;;;;;;;22.03;19.73;;;5.60;99.90;;;6.73;79.54;98453.19;5206617;28;20285;-60
2021/03/04 03:25:35;;;;;;;23.83;19.10;;;5.50;99.90;;;6.64;79.98;98453.31;5206069;28;20678;-59
2021/03/04 03:28:07;;;;;;;23.50;20.13;;;5.50;99.90;;;6.64;79.60;98455.84;5197552;28;20222;-61
2021/03/04 03:30:40;;;;;;;21.13;18.93;;;5.50;99.90;;;6.55;79.60;98442.38;5192580;28;20214;-60
2021/03/04 03:33:17;;;;;;;22.13;19.70;;;5.40;99.90;;;6.44;79.89;98441.53;5198867;28;20199;-61
2021/03/04 03:35:50;;;;;;;22.83;19.47;;;5.40;99.90;;;6.40;80.50;98441.13;5185965;28;20195;-59
2021/03/04 03:38:23;;;;;;;22.87;19.47;;;5.40;99.90;;;6.40;80.18;98436.06;5194938;28;20650;-60
2021/03/04 03:40:56;;;;;;;22.00;18.40;;;5.40;99.90;;;6.41;80.65;98443.81;5206227;28;20228;-60
2021/03/04 03:43:29;;;;;;;20.83;18.40;;;5.40;99.90;;;6.35;80.30;98430.59;5196119;28;20205;-60
2021/03/04 03:46:04;;;;;;;20.03;17.93;;;5.40;99.90;;;6.22;80.55;98423.63;5195239;28;20204;-59
2021/03/04 03:48:37;;;;;;;21.27;17.47;;;5.30;99.90;;;6.20;81.17;98435.28;5203155;28;20685;-59
2021/03/04 03:51:10;;;;;;;22.57;18.73;;;5.30;99.90;;;6.27;80.93;98424.91;5186667;28;20222;-60
2021/03/04 03:53:43;;;;;;;21.17;18.07;;;5.30;99.90;;;6.29;80.82;98432.63;5203901;28;20221;-60
2021/03/04 03:56:16;;;;;;;22.93;19.63;;;5.40;99.90;;;6.28;80.67;98428.31;5206542;28;20209;-59
2021/03/04 03:58:48;;;;;;;20.43;17.93;;;5.30;99.90;;;6.28;80.77;98426.66;5190966;28;20197;-60
2021/03/04 04:01:21;;;;;;;21.07;18.67;;;5.40;99.90;;;6.23;80.80;98420.31;5198019;28;20222;-60
2021/03/04 04:03:56;;;;;;;22.03;19.63;;;5.30;99.90;;;6.26;80.90;98423.09;5202488;28;20671;-60
2021/03/04 04:06:30;;;;;;;23.37;19.23;;;5.30;99.90;;;6.26;80.93;98417.16;5206232;28;20197;-60
2021/03/04 04:09:02;;;;;;;23.57;18.93;;;5.30;99.90;;;6.30;80.29;98421.72;5204752;28;20220;-58
2021/03/04 04:11:34;;;;;;;22.93;19.17;;;5.30;99.90;;;6.28;80.44;98426.66;5200382;28;20216;-60
2021/03/04 04:14:06;;;;;;;24.13;19.33;;;5.30;99.90;;;6.32;80.15;98415.09;5201844;28;20665;-58
2021/03/04 04:16:40;;;;;;;23.47;19.10;;;5.30;99.90;;;6.31;80.71;98410.81;5200655;28;20216;-59
2021/03/04 04:19:12;;;;;;;20.23;18.07;;;5.30;99.90;;;6.26;80.66;98412.06;5197304;28;20217;-61
2021/03/04 04:21:44;;;;;;;21.73;18.50;;;5.30;99.90;;;6.27;80.54;98403.72;5186078;28;20206;-60
2021/03/04 04:24:17;;;;;;;21.13;18.23;;;5.30;99.90;;;6.25;80.75;98408.66;5196276;28;20284;-60
2021/03/04 04:26:49;;;;;;;22.10;18.50;;;5.30;99.90;;;6.29;81.25;98399.63;5205464;28;20209;-61
2021/03/04 04:29:21;;;;;;;22.70;19.30;;;5.40;99.90;;;6.27;80.86;98396.97;5186416;28;20231;-61
2021/03/04 04:31:54;;;;;;;23.77;19.53;;;5.40;99.90;;;6.27;80.60;98391.91;5200083;28;20218;-60
2021/03/04 04:34:26;;;;;;;22.43;19.73;;;5.40;99.90;;;6.31;80.96;98398.13;5203583;28;20197;-61
2021/03/04 04:36:58;;;;;;;22.37;19.23;;;5.40;99.90;;;6.36;80.69;98390.88;5204667;28;20206;-61
2021/03/04 04:39:30;;;;;;;20.53;18.13;;;5.40;99.90;;;6.32;80.40;98390.63;5198119;28;20225;-61
2021/03/04 04:42:02;;;;;;;21.83;18.43;;;5.40;99.90;;;6.37;80.25;98387.56;5203565;28;20612;-61
2021/03/04 04:44:34;;;;;;;19.73;17.10;;;5.30;99.90;;;6.36;79.72;98385.81;5197752;28;20264;-61
2021/03/04 04:47:07;;;;;;;18.10;16.20;;;5.30;99.90;;;6.32;80.53;98390.63;5202448;28;20687;-60
2021/03/04 04:49:40;;;;;;;20.17;16.00;;;5.30;99.90;;;6.32;80.61;98387.19;5203893;28;20217;-61
2021/03/04 04:52:11;;;;;;;19.73;17.63;;;5.30;99.90;;;6.32;80.51;98385.56;5205133;28;20567;-61
2021/03/04 04:54:44;;;;;;;18.87;16.30;;;5.30;99.90;;;6.33;79.73;98378.81;5197919;28;20199;-61
2021/03/04 04:57:16;;;;;;;20.97;16.77;;;5.20;99.90;;;6.24;80.25;98376.44;5196068;28;20198;-61
2021/03/04 04:59:48;;;;;;;19.13;16.60;;;5.20;99.90;;;6.21;80.50;98368.56;5197979;28;20594;-60
2021/03/04 05:02:20;;;;;;;19.57;17.50;;;5.30;99.90;;;6.19;80.23;98367.53;5197067;28;20194;-61
2021/03/04 05:04:53;;;;;;;18.33;16.07;;;5.20;99.90;;;6.17;80.52;98366.50;5187669;28;20265;-61
2021/03/04 05:07:25;;;;;;;18.37;16.43;;;5.20;99.90;;;6.14;80.48;98366.25;5202597;28;20689;-61
2021/03/04 05:12:37;;;;;;;20.07;17.10;;;5.20;99.90;;;6.09;79.95;98365.00;5184985;28;21481;-57
2021/03/04 05:15:12;;;;;;;19.87;17.50;;;5.10;99.90;;;6.03;79.93;98364.50;5186567;28;20195;-62
2021/03/04 05:17:45;;;;;;;19.70;16.77;;;5.00;99.90;;;5.96;80.24;98354.63;5187656;28;20190;-61
2021/03/04 05:20:17;;;;;;;22.80;18.73;;;5.00;99.90;;;5.97;79.76;98364.00;5190135;28;20548;-62
2021/03/04 05:22:49;;;;;;;21.53;18.50;;;5.00;99.90;;;5.95;80.18;98357.91;5205232;28;20200;-60
2021/03/04 05:25:21;;;;;;;21.53;18.00;;;5.00;99.90;;;5.90;80.01;98352.44;5193957;28;20190;-61
2021/03/04 05:27:53;;;;;;;22.00;18.67;;;5.00;99.90;;;5.83;80.08;98351.00;5203376;28;20229;-62
2021/03/04 05:30:27;;;;;;;21.53;18.00;;;4.90;99.90;;;5.88;79.94;98359.00;5203066;28;20216;-61
2021/03/04 05:33:00;;;;;;;21.77;18.10;;;4.90;99.90;;;5.83;79.68;98345.94;5205121;28;20296;-61
2021/03/04 05:35:32;;;;;;;22.00;18.73;;;4.80;99.90;;;5.80;79.82;98355.81;5199187;28;20207;-61
2021/03/04 05:38:04;;;;;;;21.17;18.07;;;4.80;99.90;;;5.78;80.11;98351.38;5208453;28;20208;-59
2021/03/04 05:40:36;;;;;;;22.23;18.07;;;4.80;99.90;;;5.74;80.11;98335.03;5202863;28;20218;-58
2021/03/04 05:43:10;;;;;;;19.20;16.83;;;4.70;99.90;;;5.75;79.99;98339.38;5208097;28;20565;-58
2021/03/04 05:45:42;;;;;;;19.73;17.63;;;4.70;99.90;;;5.71;80.35;98338.97;5204104;28;20201;-57
2021/03/04 05:48:20;;;;;;;21.03;18.93;;;4.70;99.90;;;5.69;80.71;98338.81;5203994;28;20213;-59
2021/03/04 05:50:57;;;;;;;20.00;17.80;;;4.70;99.90;;;5.67;80.59;98334.41;5192042;28;20226;-58
2021/03/04 05:53:31;;;;;;;20.80;16.87;;;4.70;99.90;;;5.62;80.76;98342.50;5186952;28;20202;-59
2021/03/04 05:56:03;;;;;;;19.60;17.50;;;4.60;99.90;;;5.60;80.94;98335.53;5188653;28;20202;-61
2021/03/04 05:58:36;;;;;;;19.40;17.20;;;4.60;99.90;;;5.57;81.02;98340.34;5194963;28;20195;-56
2021/03/04 06:01:08;;;;;;;19.50;17.40;;;4.50;99.90;;;5.57;80.97;98328.56;5210970;28;20220;-58
2021/03/04 06:03:41;;;;;;;21.07;18.60;;;4.60;99.90;;;5.54;81.36;98327.41;5207195;28;20194;-60
2021/03/04 06:06:13;;;;;;;19.20;17.13;;;4.60;99.90;;;5.49;81.91;98328.66;5198283;28;20210;-56
2021/03/04 06:08:45;;;;;;;20.80;18.00;;;4.60;99.90;;;5.50;81.97;98333.00;5190907;28;20222;-57
2021/03/04 06:11:17;;;;;;;21.53;17.53;;;4.70;99.90;;;5.53;82.21;98330.72;5204467;28;20232;-57
2021/03/04 06:13:49;;;;;;;22.03;18.50;;;4.70;99.90;;;5.61;81.39;98333.13;5200667;28;20210;-60
2021/03/04 06:16:21;;;;;;;24.80;19.33;;;4.70;99.90;;;5.65;81.71;98324.13;5205932;28;20197;-59
2021/03/04 06:18:54;;;;;;;23.17;19.43;;;4.80;99.90;;;5.77;81.35;98326.78;5203831;28;20210;-57
2021/03/04 06:21:28;;;;;;;20.53;17.93;;;4.80;99.90;;;5.75;81.02;98330.84;5204970;28;20217;-57
2021/03/04 06:24:00;;;;;;;24.00;18.77;;;4.70;99.90;;;5.73;80.64;98324.78;5203388;28;20201;-58
2021/03/04 06:26:37;;;;;;;22.93;18.63;;;4.70;99.90;;;5.77;80.48;98327.69;5197922;28;20198;-57
2021/03/04 06:29:14;;;;;;;22.07;17.77;;;4.80;99.90;;;5.75;80.65;98326.69;5200772;28;20220;-58
2021/03/04 06:32:01;;;;;;;21.53;17.13;;;4.70;99.90;;;5.74;80.62;98319.81;5201637;28;20217;-61
2021/03/04 06:34:34;;;;;;;22.20;17.87;;;4.70;99.90;;;5.80;80.15;98321.97;5201484;28;20205;-59
2021/03/04 06:37:07;;;;;;;23.87;20.20;;;4.80;99.90;;;5.84;80.42;98324.03;5199581;28;20198;-57
2021/03/04 06:39:42;;;;;;;25.00;20.20;;;4.90;99.90;;;5.89;80.40;98320.19;5189462;28;20194;-59
2021/03/04 06:42:15;;;;;;;23.97;20.20;;;4.90;99.90;;;5.95;79.88;98328.38;5206230;28;20213;-62
2021/03/04 06:44:50;;;;;;;25.00;21.30;;;5.00;99.90;;;5.97;79.51;98320.88;5198900;28;20257;-56
2021/03/04 06:47:24;;;;;;;22.70;19.13;;;5.00;99.90;;;6.02;80.21;98328.09;5202514;28;20752;-58
2021/03/04 06:49:57;;;;;;;21.47;17.23;;;5.00;99.90;;;6.06;79.58;98329.22;5204715;28;20197;-57
2021/03/04 06:52:44;;;;;;;21.57;17.70;;;5.00;99.90;;;6.08;79.21;98322.63;5196062;28;20540;-56
2021/03/04 06:55:16;;;;;;;19.27;17.23;;;5.00;99.90;;;6.14;78.95;98323.13;5204871;28;20201;-59
2021/03/04 06:57:59;;;;;;;18.50;16.23;;;5.00;99.90;;;6.14;78.94;98328.19;5196931;28;20566;-57
2021/03/04 07:00:31;;;;;;;17.13;15.37;;;5.00;99.90;;;6.17;79.00;98327.56;5192180;28;20590;-63
2021/03/04 07:03:04;;;;;;;17.90;15.67;;;5.00;99.90;;;6.19;78.25;98328.59;5203474;28;20201;-56
2021/03/04 07:05:37;;;;;;;18.27;15.33;;;5.00;99.90;;;6.16;78.41;98325.81;5190081;28;20198;-59
2021/03/04 07:08:11;;;;;;;18.00;16.07;;;5.10;99.90;;;6.23;77.94;98323.88;5204504;28;20715;-55
2021/03/04 07:10:43;;;;;;;21.47;17.33;;;5.20;99.90;;;6.25;78.47;98319.81;5203296;28;20226;-59
2021/03/04 07:13:16;;;;;;;17.57;15.50;;;5.20;99.90;;;6.24;78.24;98333.28;5201241;28;20308;-56
2021/03/04 07:15:48;;;;;;;19.87;17.77;;;5.20;99.90;;;6.37;77.13;98321.56;5203572;28;20650;-58
2021/03/04 07:18:21;;;;;;;18.87;16.87;;;5.30;99.90;;;6.31;78.11;98322.84;5204035;28;20190;-59
2021/03/04 07:20:55;;;;;;;20.63;17.23;;;5.20;99.90;;;6.38;77.71;98316.63;5205334;28;20559;-61
2021/03/04 07:23:28;;;;;;;20.03;17.97;;;5.30;99.90;;;6.34;77.87;98321.31;5197970;28;20201;-61
2021/03/04 07:26:00;;;;;;;22.00;18.20;;;5.30;99.90;;;6.30;78.05;98310.91;5204721;28;20198;-58
2021/03/04 07:28:33;;;;;;;19.77;17.63;;;5.30;99.90;;;6.32;77.87;98309.41;5200821;28;20214;-59
2021/03/04 07:31:07;;;;;;;20.17;17.63;;;5.30;99.90;;;6.39;78.57;98314.97;5197780;28;20217;-57
2021/03/04 07:33:44;;;;;;;19.97;17.13;;;5.40;99.90;;;6.46;78.88;98312.13;5194437;28;20205;-59
2021/03/04 07:36:22;;;;;;;19.40;16.70;;;5.50;99.90;;;6.64;78.21;98308.53;5203722;28;20675;-59
2021/03/04 07:38:57;;;;;;;19.30;17.33;;;5.60;99.90;;;6.84;78.03;98312.66;5205954;28;20200;-61
2021/03/04 07:41:37;;;;;;;19.57;16.90;;;5.90;99.90;;;7.06;76.84;98302.50;5200322;28;20217;-59
2021/03/04 07:44:11;;;;;;;19.13;17.00;;;6.00;99.90;;;7.15;76.21;98304.84;5192651;28;20204;-61
2021/03/04 07:46:51;;;;;;;17.67;15.80;;;6.00;99.90;;;7.13;76.23;98304.75;5185197;28;20194;-59
2021/03/04 07:49:31;;;;;;;18.77;15.63;;;6.00;99.90;;;7.26;75.50;98304.03;5190506;28;20589;-62
2021/03/04 07:52:13;;;;;;;19.67;17.57;;;6.10;99.90;;;7.31;75.67;98300.19;5188512;28;20214;-62
2021/03/04 07:54:48;;;;;;;20.10;18.07;;;6.10;99.90;;;7.42;74.96;98299.38;5191565;28;20198;-60
2021/03/04 07:57:23;;;;;;;21.13;18.87;;;6.30;99.90;;;7.56;75.25;98286.81;5198866;28;20190;-61
2021/03/04 07:59:58;;;;;;;22.63;20.30;;;6.40;99.90;;;7.71;75.10;98289.63;5191562;28;20300;-61
2021/03/04 08:02:32;;;;;;;20.47;18.10;;;6.60;99.90;;;7.86;74.16;98298.38;5204308;28;20217;-60
2021/03/04 08:05:10;;;;;;;21.07;18.77;;;6.70;99.90;;;8.11;73.93;98293.47;5193713;28;20199;-57
2021/03/04 08:07:48;;;;;;;22.30;18.77;;;7.00;99.90;;;8.43;71.91;98288.19;5191577;28;20193;-61
2021/03/04 08:10:22;;;;;;;19.23;17.23;;;7.40;99.90;;;8.57;71.84;98287.50;5197483;28;20220;-62
2021/03/04 08:12:57;;;;;;;19.37;17.27;;;7.50;99.90;;;8.77;71.71;98285.50;5205163;28;20233;-62
2021/03/04 08:15:33;;;;;;;22.13;18.60;;;7.80;99.90;;;9.05;70.82;98278.13;5204354;28;20295;-63
2021/03/04 08:18:17;;;;;;;21.50;17.93;;;8.10;99.90;;;9.32;69.94;98268.06;5185159;28;20249;-61
2021/03/04 08:20:52;;;;;;;23.00;19.33;;;8.40;99.90;;;9.60;68.65;98270.81;5189697;28;20214;-62
2021/03/04 08:23:25;;;;;;;23.67;18.73;;;8.60;99.90;;;9.90;66.86;98272.88;5202435;28;20215;-59
2021/03/04 08:25:59;;;;;;;24.43;19.63;;;8.80;99.90;;;10.01;67.12;98259.91;5204400;28;20209;-57
2021/03/04 08:28:31;;;;;;;21.30;18.97;;;9.00;99.90;;;10.12;66.44;98257.25;5204593;28;20228;-61
2021/03/04 08:31:07;;;;;;;21.03;18.63;;;9.10;99.90;;;10.32;65.71;98261.13;5202423;28;20400;-61
2021/03/04 08:33:39;;;;;;;19.83;17.83;;;9.40;99.90;;;10.50;65.16;98258.91;5184267;28;20216;-58
2021/03/04 08:36:11;;;;;;;20.67;18.37;;;9.50;99.90;;;10.71;63.53;98258.47;5193199;28;20720;-61
2021/03/04 08:38:44;;;;;;;19.80;17.70;;;9.70;99.90;;;10.93;63.67;98253.00;5201682;28;20186;-62
2021/03/04 08:41:21;;;;;;;20.67;16.83;;;10.00;99.90;;;11.11;62.48;98246.50;5208782;28;20227;-62
2021/03/04 08:43:53;;;;;;;21.00;17.73;;;10.30;99.90;;;11.35;62.00;98252.19;5208236;28;20204;-62
2021/03/04 08:46:30;;;;;;;19.50;16.83;;;10.60;99.90;;;11.64;60.05;98246.25;5208599;28;20658;-59
2021/03/04 08:49:03;;;;;;;19.70;16.17;;;10.90;99.90;;;11.87;59.17;98244.19;5207980;28;20681;-59
2021/03/04 08:51:43;;;;;;;17.45;15.55;;;11.20;99.90;;;12.22;56.26;98232.50;5195441;28;20261;-60
2021/03/04 08:54:25;;;;;;;16.83;14.98;;;11.20;99.90;;;12.47;54.90;98227.97;5188730;28;20289;-63
2021/03/04 08:56:59;;;;;;;18.02;16.13;;;11.40;99.90;;;12.65;54.78;98222.97;5190428;28;20199;-60
2021/03/04 08:59:32;;;;;;;16.70;14.73;;;11.60;99.90;;;12.79;52.57;98218.56;5202243;28;20629;-59
2021/03/04 09:02:14;;;;;;;16.88;15.02;;;11.60;99.90;;;12.96;52.27;98215.25;5207852;28;20728;-59
2021/03/04 09:04:51;;;;;;;17.17;14.38;;;12.00;99.90;;;13.21;49.25;98219.97;5207845;28;20685;-62
2021/03/04 09:07:32;;;;;;;16.75;14.02;;;12.30;99.90;;;13.52;48.58;98217.34;5205920;28;20201;-62
2021/03/04 09:10:07;;;;;;;16.70;13.10;;;12.50;99.40;;;13.68;47.43;98208.75;5200892;28;20210;-59
2021/03/04 09:12:43;;;;;;;15.15;13.40;;;12.60;97.60;;;13.80;46.74;98211.06;5206070;28;20586;-58
2021/03/04 09:15:18;;;;;;;15.52;13.65;;;12.80;97.90;;;13.87;46.00;98210.53;5190195;28;20208;-59
2021/03/04 09:17:51;;;;;;;14.85;13.35;;;12.80;97.00;;;13.88;46.25;98206.31;5204553;28;20197;-58
2021/03/04 09:20:30;;;;;;;16.38;13.65;;;12.90;97.20;;;13.98;45.65;98193.09;5192702;28;20460;-57
2021/03/04 09:23:05;;;;;;;17.63;13.57;;;13.00;96.60;;;14.02;45.58;98184.75;5205522;28;20198;-60
2021/03/04 09:25:38;;;;;;;15.50;12.48;;;12.90;96.70;;;14.19;45.10;98182.94;5201365;28;20288;-60
2021/03/04 09:28:14;;;;;;;15.23;12.93;;;13.10;96.60;;;14.46;43.88;98180.81;5207142;28;20677;-56
2021/03/04 09:30:47;;;;;;;18.15;12.48;;;13.40;95.50;;;14.72;43.48;98179.50;5207349;28;20233;-60
2021/03/04 09:33:24;;;;;;;12.85;11.23;;;13.60;95.30;;;14.74;43.97;98175.31;5206976;28;20284;-63
2021/03/04 09:36:00;;;;;;;15.40;12.88;;;13.80;94.70;;;15.02;41.72;98168.81;5207734;28;20288;-60
2021/03/04 09:38:35;;;;;;;14.02;11.68;;;13.80;93.60;;;15.06;42.18;98163.88;5198734;28;20206;-62
2021/03/04 09:41:17;;;;;;;13.13;11.57;;;14.00;93.90;;;15.10;42.05;98154.59;5201387;28;20280;-60
2021/03/04 09:43:51;;;;;;;13.70;10.88;;;14.10;93.40;;;15.09;41.16;98152.84;5199100;28;20204;-63
2021/03/04 09:46:28;;;;;;;12.25;10.63;;;14.30;92.80;;;15.18;40.93;98152.34;5207032;28;20194;-62
2021/03/04 09:49:08;;;;;;;13.30;10.50;;;14.30;92.50;;;15.41;40.18;98149.06;5198140;28;20226;-63
2021/03/04 09:51:42;;;;;;;13.73;10.48;;;14.40;92.00;;;15.59;39.52;98142.94;5206934;28;20301;-63
2021/03/04 09:54:25;;;;;;;11.98;10.73;;;14.40;91.50;;;15.56;39.38;98141.09;5196143;28;20205;-61
2021/03/04 09:57:05;;;;;;;14.48;9.65;;;14.40;91.80;;;15.55;39.50;98144.50;5196158;28;20700;-62
2021/03/04 09:59:45;;;;;;;12.77;10.77;;;14.40;91.60;;;15.47;40.29;98141.59;5207835;28;20214;-61
2021/03/04 10:02:18;;;;;;;12.75;10.43;;;14.50;91.90;;;15.52;40.28;98141.81;5204147;28;20222;-61
2021/03/04 10:04:55;;;;;;;13.90;10.05;;;14.60;91.80;;;15.71;39.88;98131.50;5207735;28;20248;-61
2021/03/04 10:07:30;;;;;;;14.65;10.57;;;14.60;91.80;;;15.67;40.24;98132.13;5196640;28;20201;-62
2021/03/04 10:10:02;;;;;;;11.90;10.50;;;14.60;91.90;;;15.76;40.43;98129.94;5206864;28;20230;-63
2021/03/04 10:12:53;;;;;;;15.38;11.13;;;14.60;91.90;;;15.77;40.20;98126.59;5205941;28;20190;-61
2021/03/04 10:15:28;;;;;;;12.82;11.02;;;14.80;91.80;;;15.94;39.41;98127.28;5189973;28;20653;-63
2021/03/04 10:18:03;;;;;;;12.90;10.25;;;14.90;91.40;;;15.93;39.25;98116.88;5206370;28;20205;-62
2021/03/04 10:20:37;;;;;;;16.05;10.98;;;15.00;91.10;;;15.94;39.79;98113.50;5193085;28;20209;-60
2021/03/04 10:23:09;;;;;;;13.38;10.73;;;14.90;91.30;;;15.99;39.26;98119.69;5206482;28;20198;-64
2021/03/04 10:25:43;;;;;;;14.15;10.38;;;14.90;91.10;;;15.96;39.78;98111.84;5206610;28;20297;-61
2021/03/04 10:28:16;;;;;;;14.23;10.80;;;15.00;91.20;;;16.05;39.83;98108.75;5204943;28;20197;-62
2021/03/04 10:30:48;;;;;;;13.15;10.18;;;15.00;91.20;;;16.10;39.77;98104.66;5200809;28;20310;-62
2021/03/04 10:33:20;;;;;;;13.20;10.40;;;15.10;91.10;;;16.08;39.61;98117.50;5202011;28;20198;-63
2021/03/04 10:35:52;;;;;;;15.13;10.50;;;15.00;90.90;;;16.10;39.48;98105.53;5203987;28;20198;-63
2021/03/04 10:38:24;;;;;;;13.85;10.98;;;15.10;90.90;;;16.13;38.87;98109.94;5202182;28;20213;-59
2021/03/04 10:40:56;;;;;;;13.70;11.30;;;15.20;90.50;;;16.11;39.52;98102.16;5193489;28;20221;-60
2021/03/04 10:43:30;;;;;;;14.85;11.68;;;15.20;90.80;;;16.29;40.16;98095.94;5204599;28;20216;-63
2021/03/04 10:46:02;;;;;;;15.40;12.30;;;15.20;91.60;;;16.27;40.18;98101.03;5205935;28;20200;-61
2021/03/04 10:48:34;;;;;;;15.20;11.57;;;15.20;91.60;;;16.36;40.28;98092.75;5206698;28;20221;-61
2021/03/04 10:51:06;;;;;;;13.38;11.35;;;15.30;91.60;;;16.38;39.57;98088.56;5201339;28;20218;-63